createdAt,value
2018-05-23T00:01:03.323Z,99.50
2018-05-23T00:03:30.757Z,99.50
2018-05-23T00:05:58.191Z,99.50
2018-05-23T00:08:25.636Z,99.70
2018-05-23T00:10:53.071Z,99.60
2018-05-23T00:13:20.534Z,99.60
2018-05-23T00:15:47.976Z,99.60
2018-05-23T00:18:16.189Z,99.70
2018-05-23T00:20:45.285Z,99.70
2018-05-23T00:23:12.721Z,99.70
2018-05-23T00:25:40.156Z,99.80
2018-05-23T00:28:07.610Z,99.90
2018-05-23T00:30:35.195Z,99.90
2018-05-23T00:33:02.642Z,99.90
2018-05-23T00:35:30.958Z,99.90
2018-05-23T00:37:58.488Z,99.90
2018-05-23T00:40:25.920Z,99.90
2018-05-23T00:42:53.687Z,99.90
2018-05-23T00:45:21.124Z,99.90
2018-05-23T00:47:48.568Z,99.90
2018-05-23T00:50:16.080Z,99.90
2018-05-23T00:52:43.480Z,99.90
2018-05-23T00:55:22.713Z,99.90
2018-05-23T00:57:50.206Z,99.90
2018-05-23T01:00:17.655Z,99.90
2018-05-23T01:02:45.536Z,99.90
2018-05-23T01:05:12.978Z,99.90
2018-05-23T01:07:40.424Z,99.90
2018-05-23T01:10:07.876Z,99.90
2018-05-23T01:12:36.076Z,99.90
2018-05-23T01:15:03.671Z,99.90
2018-05-23T01:17:31.113Z,99.90
2018-05-23T01:19:58.578Z,99.90
2018-05-23T01:22:26.358Z,99.90
2018-05-23T01:24:53.797Z,99.90
2018-05-23T01:27:22.040Z,99.90
2018-05-23T01:29:50.252Z,99.90
2018-05-23T01:32:17.696Z,99.90
2018-05-23T01:34:45.190Z,99.90
2018-05-23T01:37:12.620Z,99.90
2018-05-23T01:39:40.116Z,99.90
2018-05-23T01:42:07.568Z,99.90
2018-05-23T01:44:35.017Z,99.90
2018-05-23T01:47:02.470Z,99.90
2018-05-23T01:49:29.925Z,99.90
2018-05-23T01:51:57.374Z,99.90
2018-05-23T01:54:25.605Z,99.90
2018-05-23T01:56:53.054Z,99.90
2018-05-23T01:59:20.514Z,99.90
2018-05-23T02:01:48.366Z,99.90
2018-05-23T02:04:15.805Z,99.90
2018-05-23T02:06:43.245Z,99.90
2018-05-23T02:09:11.454Z,99.90
2018-05-23T02:11:38.909Z,99.90
2018-05-23T02:14:06.404Z,99.90
2018-05-23T02:16:33.860Z,99.90
2018-05-23T02:19:01.316Z,99.90
2018-05-23T02:21:28.773Z,99.90
2018-05-23T02:23:56.209Z,99.90
2018-05-23T02:26:23.661Z,99.90
2018-05-23T02:28:51.868Z,99.90
2018-05-23T02:31:19.325Z,99.90
2018-05-23T02:33:46.772Z,99.90
2018-05-23T02:36:14.208Z,99.90
2018-05-23T02:38:41.669Z,99.90
2018-05-23T02:41:09.905Z,99.90
2018-05-23T02:43:37.453Z,99.90
2018-05-23T02:46:04.897Z,99.90
2018-05-23T02:48:32.337Z,99.90
2018-05-23T02:51:00.557Z,99.90
2018-05-23T02:53:28.017Z,99.90
2018-05-23T02:55:55.465Z,99.90
2018-05-23T02:58:22.913Z,99.90
2018-05-23T03:00:50.363Z,99.90
2018-05-23T03:03:18.570Z,99.90
2018-05-23T03:05:46.025Z,99.90
2018-05-23T03:08:13.477Z,99.90
2018-05-23T03:10:41.422Z,99.90
2018-05-23T03:13:08.865Z,99.90
2018-05-23T03:15:36.325Z,99.90
2018-05-23T03:18:03.772Z,99.90
2018-05-23T03:20:31.220Z,99.90
2018-05-23T03:22:58.670Z,99.90
2018-05-23T03:25:26.117Z,99.90
2018-05-23T03:27:53.573Z,99.90
2018-05-23T03:30:21.032Z,99.90
2018-05-23T03:32:49.241Z,99.90
2018-05-23T03:35:16.674Z,99.90
2018-05-23T03:37:44.153Z,99.90
2018-05-23T03:40:11.596Z,99.90
2018-05-23T03:42:39.057Z,99.90
2018-05-23T03:45:06.496Z,99.90
2018-05-23T03:47:34.716Z,99.90
2018-05-23T03:50:02.181Z,99.90
2018-05-23T03:52:29.623Z,99.90
2018-05-23T03:54:57.064Z,99.90
2018-05-23T03:57:25.275Z,99.90
2018-05-23T04:00:04.785Z,99.90
2018-05-23T04:02:44.083Z,99.90
2018-05-23T04:05:23.470Z,99.90
2018-05-23T04:07:50.922Z,99.90
2018-05-23T04:10:19.174Z,99.90
2018-05-23T04:12:46.904Z,99.90
2018-05-23T04:15:14.280Z,99.90
2018-05-23T04:17:41.716Z,99.90
2018-05-23T04:20:09.187Z,99.90
2018-05-23T04:22:36.632Z,99.90
2018-05-23T04:25:04.076Z,99.90
2018-05-23T04:27:31.568Z,99.90
2018-05-23T04:29:59.005Z,99.90
2018-05-23T04:32:26.773Z,99.90
2018-05-23T04:34:55.168Z,99.90
2018-05-23T04:37:22.744Z,99.90
2018-05-23T04:39:50.187Z,99.90
2018-05-23T04:42:18.296Z,99.90
2018-05-23T04:44:45.751Z,99.90
2018-05-23T04:47:13.188Z,99.90
2018-05-23T04:49:40.644Z,99.90
2018-05-23T04:52:08.085Z,99.90
2018-05-23T04:54:35.543Z,99.90
2018-05-23T04:57:03.165Z,99.90
2018-05-23T04:59:30.595Z,99.90
2018-05-23T05:01:58.042Z,99.90
2018-05-23T05:04:25.514Z,99.90
2018-05-23T05:06:52.937Z,99.90
2018-05-23T05:09:21.292Z,99.90
2018-05-23T05:11:48.737Z,99.90
2018-05-23T05:14:16.191Z,99.90
2018-05-23T05:16:43.640Z,99.90
2018-05-23T05:19:11.188Z,99.90
2018-05-23T05:21:38.644Z,99.90
2018-05-23T05:24:06.091Z,99.90
2018-05-23T05:26:34.416Z,99.90
2018-05-23T05:29:01.885Z,99.90
2018-05-23T05:31:29.333Z,99.90
2018-05-23T05:33:56.808Z,99.90
2018-05-23T05:36:24.467Z,99.90
2018-05-23T05:38:51.958Z,99.90
2018-05-23T05:41:19.359Z,99.90
2018-05-23T05:43:46.831Z,99.90
2018-05-23T05:46:14.591Z,99.70
2018-05-23T05:48:42.030Z,99.60
2018-05-23T05:51:10.255Z,99.50
2018-05-23T05:53:37.764Z,99.50
2018-05-23T05:56:05.185Z,99.40
2018-05-23T05:58:32.725Z,99.20
2018-05-23T06:01:00.338Z,99.10
2018-05-23T06:03:27.986Z,98.90
2018-05-23T06:05:55.822Z,98.80
2018-05-23T06:08:23.275Z,98.80
2018-05-23T06:10:50.904Z,98.70
2018-05-23T06:13:18.421Z,98.60
2018-05-23T06:15:45.886Z,98.60
2018-05-23T06:18:13.336Z,98.70
2018-05-23T06:20:40.911Z,98.60
2018-05-23T06:23:08.349Z,98.50
2018-05-23T06:25:36.216Z,98.70
2018-05-23T06:28:03.826Z,98.70
2018-05-23T06:30:31.441Z,98.70
2018-05-23T06:33:00.570Z,99.00
2018-05-23T06:35:28.040Z,98.70
2018-05-23T06:37:55.486Z,98.70
2018-05-23T06:40:22.956Z,98.70
2018-05-23T06:42:50.486Z,98.80
2018-05-23T06:45:18.834Z,99.00
2018-05-23T06:47:47.212Z,98.90
2018-05-23T06:50:14.627Z,98.90
2018-05-23T06:52:42.061Z,98.80
2018-05-23T06:55:09.563Z,98.50
2018-05-23T06:57:37.769Z,98.20
2018-05-23T07:00:05.301Z,98.20
2018-05-23T07:02:32.735Z,98.20
2018-05-23T07:05:00.184Z,97.90
2018-05-23T07:07:27.623Z,98.00
2018-05-23T07:09:55.061Z,97.80
2018-05-23T07:12:23.342Z,97.60
2018-05-23T07:14:50.813Z,97.50
2018-05-23T07:17:18.681Z,97.60
2018-05-23T07:19:46.137Z,97.50
2018-05-23T07:22:14.539Z,97.40
2018-05-23T07:24:42.007Z,96.60
2018-05-23T07:27:09.455Z,96.10
2018-05-23T07:29:37.391Z,96.00
2018-05-23T07:32:04.909Z,96.00
2018-05-23T07:34:32.349Z,95.50
2018-05-23T07:36:59.808Z,95.00
2018-05-23T07:39:28.042Z,95.10
2018-05-23T07:41:55.483Z,95.10
2018-05-23T07:44:22.946Z,94.80
2018-05-23T07:46:50.447Z,94.80
2018-05-23T07:49:17.851Z,94.90
2018-05-23T07:51:45.299Z,95.00
2018-05-23T07:54:13.608Z,94.80
2018-05-23T07:56:41.077Z,94.70
2018-05-23T07:59:08.510Z,94.80
2018-05-23T08:01:36.059Z,94.80
2018-05-23T08:04:04.258Z,95.10
2018-05-23T08:06:31.689Z,95.10
2018-05-23T08:09:00.050Z,95.40
2018-05-23T08:11:27.524Z,95.40
2018-05-23T08:13:55.550Z,95.40
2018-05-23T08:16:23.940Z,95.10
2018-05-23T08:18:51.363Z,95.10
2018-05-23T08:21:18.813Z,95.10
2018-05-23T08:23:46.479Z,95.10
2018-05-23T08:26:15.063Z,95.60
2018-05-23T08:28:43.333Z,95.50
2018-05-23T08:31:11.578Z,96.00
2018-05-23T08:33:39.019Z,95.70
2018-05-23T08:36:06.460Z,96.10
2018-05-23T08:38:33.903Z,96.00
2018-05-23T08:41:02.118Z,95.90
2018-05-23T08:43:29.559Z,95.90
2018-05-23T08:45:57.072Z,95.50
2018-05-23T08:48:24.700Z,94.90
2018-05-23T08:50:52.157Z,95.00
2018-05-23T08:53:19.591Z,94.90
2018-05-23T08:55:47.859Z,94.80
2018-05-23T08:58:16.081Z,94.20
2018-05-23T09:00:43.561Z,94.20
2018-05-23T09:03:10.984Z,94.00
2018-05-23T09:05:38.422Z,94.40
2018-05-23T09:08:06.633Z,94.90
2018-05-23T09:10:34.063Z,94.90
2018-05-23T09:13:02.285Z,95.50
2018-05-23T09:15:29.859Z,95.50
2018-05-23T09:17:57.331Z,95.60
2018-05-23T09:20:24.803Z,95.70
2018-05-23T09:22:53.648Z,95.90
2018-05-23T09:25:21.115Z,95.90
2018-05-23T09:27:49.291Z,95.90
2018-05-23T09:30:16.736Z,95.80
2018-05-23T09:32:44.316Z,95.50
2018-05-23T09:35:11.890Z,95.70
2018-05-23T09:37:39.341Z,95.70
2018-05-23T09:40:06.776Z,95.70
2018-05-23T09:42:34.343Z,95.50
2018-05-23T09:45:01.885Z,95.00
2018-05-23T09:47:29.984Z,94.30
2018-05-23T09:49:57.437Z,94.20
2018-05-23T09:52:25.716Z,94.00
2018-05-23T09:54:53.165Z,94.00
2018-05-23T09:57:21.364Z,93.50
2018-05-23T09:59:48.804Z,93.40
2018-05-23T10:02:17.241Z,93.00
2018-05-23T10:04:44.703Z,93.00
2018-05-23T10:07:12.182Z,93.10
2018-05-23T10:09:39.661Z,92.80
2018-05-23T10:12:07.879Z,92.10
2018-05-23T10:14:35.329Z,92.10
2018-05-23T10:17:02.757Z,91.80
2018-05-23T10:19:30.198Z,91.80
2018-05-23T10:21:57.646Z,92.10
2018-05-23T10:24:25.147Z,91.70
2018-05-23T10:26:53.408Z,90.90
2018-05-23T10:29:20.850Z,90.90
2018-05-23T10:31:48.297Z,90.80
2018-05-23T10:34:15.737Z,90.40
2018-05-23T10:36:43.187Z,90.30
2018-05-23T10:39:10.693Z,89.30
2018-05-23T10:41:39.232Z,86.10
2018-05-23T10:44:06.701Z,86.00
2018-05-23T10:46:34.140Z,84.20
2018-05-23T10:49:01.616Z,80.10
2018-05-23T10:51:29.060Z,73.60
2018-05-23T10:53:57.261Z,69.40
2018-05-23T10:56:24.722Z,69.30
2018-05-23T10:58:52.325Z,66.70
2018-05-23T11:01:19.784Z,67.60
2018-05-23T11:03:47.247Z,63.10
2018-05-23T11:06:14.710Z,61.20
2018-05-23T11:08:42.167Z,57.30
2018-05-23T11:11:14.197Z,57.20
2018-05-23T11:13:41.658Z,54.50
2018-05-23T11:16:09.313Z,55.30
2018-05-23T11:18:37.518Z,55.10
2018-05-23T11:21:04.976Z,54.90
2018-05-23T11:23:32.483Z,50.20
2018-05-23T11:25:59.877Z,50.50
2018-05-23T11:28:27.321Z,51.80
2018-05-23T11:30:55.888Z,51.40
2018-05-23T11:33:23.425Z,51.40
2018-05-23T11:35:51.682Z,52.10
2018-05-23T11:38:19.132Z,52.10
2018-05-23T11:40:46.645Z,51.70
2018-05-23T11:43:14.092Z,53.20
2018-05-23T11:45:41.579Z,53.70
2018-05-23T11:48:09.061Z,49.20
2018-05-23T11:50:37.272Z,51.30
2018-05-23T11:53:05.185Z,51.30
2018-05-23T11:55:32.619Z,51.10
2018-05-23T11:58:01.135Z,51.90
2018-05-23T12:00:28.579Z,52.00
2018-05-23T12:02:56.031Z,49.30
2018-05-23T12:05:25.595Z,49.20
2018-05-23T12:07:53.795Z,48.70
2018-05-23T12:10:22.121Z,48.70
2018-05-23T12:12:49.557Z,47.80
2018-05-23T12:15:17.102Z,47.60
2018-05-23T12:17:44.551Z,48.60
2018-05-23T12:20:12.025Z,47.50
2018-05-23T12:22:39.467Z,46.20
2018-05-23T12:25:07.275Z,44.90
2018-05-23T12:27:34.715Z,46.60
2018-05-23T12:30:02.199Z,48.00
2018-05-23T12:32:29.745Z,51.00
2018-05-23T12:34:57.254Z,52.10
2018-05-23T12:37:25.491Z,50.90
2018-05-23T12:39:52.937Z,50.90
2018-05-23T12:42:20.425Z,50.50
2018-05-23T12:44:47.857Z,49.00
2018-05-23T12:47:16.295Z,48.40
2018-05-23T12:49:43.829Z,47.10
2018-05-23T12:52:11.267Z,48.30
2018-05-23T12:54:38.817Z,46.30
2018-05-23T12:57:06.324Z,46.90
2018-05-23T12:59:34.982Z,45.30
2018-05-23T13:02:02.754Z,44.60
2018-05-23T13:04:30.183Z,45.00
2018-05-23T13:06:57.640Z,44.60
2018-05-23T13:09:25.121Z,43.40
2018-05-23T13:11:53.484Z,43.20
2018-05-23T13:14:21.005Z,42.30
2018-05-23T13:16:48.801Z,43.70
2018-05-23T13:19:17.065Z,41.20
2018-05-23T13:21:44.503Z,41.20
2018-05-23T13:24:12.013Z,41.60
2018-05-23T13:26:39.464Z,40.60
2018-05-23T13:29:07.675Z,39.10
2018-05-23T13:31:35.135Z,39.60
2018-05-23T13:34:03.617Z,38.10
2018-05-23T13:36:31.082Z,38.70
2018-05-23T13:38:58.567Z,40.30
2018-05-23T13:41:26.312Z,43.40
2018-05-23T13:43:53.759Z,42.30
2018-05-23T13:46:21.212Z,39.70
2018-05-23T13:48:49.135Z,38.30
2018-05-23T13:51:16.576Z,38.20
2018-05-23T13:53:44.113Z,38.90
2018-05-23T13:56:11.705Z,39.00
2018-05-23T13:58:39.206Z,37.40
2018-05-23T14:01:06.672Z,36.40
2018-05-23T14:03:34.873Z,34.40
2018-05-23T14:06:02.330Z,34.40
2018-05-23T14:08:29.775Z,33.20
2018-05-23T14:10:58.566Z,33.80
2018-05-23T14:13:26.967Z,34.90
2018-05-23T14:15:54.532Z,34.80
2018-05-23T14:18:22.016Z,35.20
2018-05-23T14:20:49.603Z,35.50
2018-05-23T14:23:17.893Z,34.60
2018-05-23T14:25:46.121Z,34.60
2018-05-23T14:28:13.594Z,33.40
2018-05-23T14:30:41.356Z,33.10
2018-05-23T14:33:09.083Z,32.20
2018-05-23T14:35:37.340Z,31.60
2018-05-23T14:38:04.756Z,31.60
2018-05-23T14:40:32.327Z,30.90
2018-05-23T14:42:59.953Z,31.40
2018-05-23T14:45:27.623Z,33.30
2018-05-23T14:47:55.178Z,35.00
2018-05-23T14:50:23.462Z,36.80
2018-05-23T14:52:51.718Z,36.60
2018-05-23T14:55:19.171Z,36.60
2018-05-23T14:57:46.860Z,35.60
2018-05-23T15:00:15.081Z,34.30
2018-05-23T15:02:42.519Z,34.30
2018-05-23T15:05:09.995Z,35.20
2018-05-23T15:07:37.455Z,35.10
2018-05-23T15:10:04.914Z,34.10
2018-05-23T15:12:32.371Z,35.00
2018-05-23T15:15:00.024Z,33.40
2018-05-23T15:17:28.335Z,34.50
2018-05-23T15:19:55.814Z,36.20
2018-05-23T15:22:23.248Z,38.70
2018-05-23T15:24:50.676Z,40.50
2018-05-23T15:27:18.999Z,44.10
2018-05-23T15:29:46.700Z,44.00
2018-05-23T15:32:14.188Z,45.00
2018-05-23T15:34:43.376Z,43.50
2018-05-23T15:37:10.860Z,43.40
2018-05-23T15:39:38.295Z,46.60
2018-05-23T15:42:06.541Z,42.60
2018-05-23T15:44:33.988Z,42.10
2018-05-23T15:47:01.435Z,40.20
2018-05-23T15:49:28.923Z,39.10
2018-05-23T15:51:56.405Z,37.40
2018-05-23T15:54:24.640Z,34.20
2018-05-23T15:56:52.117Z,34.10
2018-05-23T15:59:19.536Z,33.60
2018-05-23T16:01:47.000Z,33.40
2018-05-23T16:04:14.456Z,32.60
2018-05-23T16:06:41.899Z,31.00
2018-05-23T16:09:10.139Z,31.60
2018-05-23T16:11:37.600Z,31.50
2018-05-23T16:14:05.075Z,30.40
2018-05-23T16:16:32.512Z,30.90
2018-05-23T16:19:00.509Z,31.50
2018-05-23T16:21:28.015Z,32.30
2018-05-23T16:23:55.471Z,32.80
2018-05-23T16:26:23.721Z,34.40
2018-05-23T16:28:51.191Z,34.40
2018-05-23T16:31:18.762Z,36.50
2018-05-23T16:33:47.000Z,40.60
2018-05-23T16:36:14.526Z,40.50
2018-05-23T16:38:42.604Z,42.90
2018-05-23T16:41:10.039Z,44.30
2018-05-23T16:43:38.295Z,47.60
2018-05-23T16:46:05.749Z,47.50
2018-05-23T16:48:33.195Z,48.90
2018-05-23T16:51:00.669Z,49.70
2018-05-23T16:53:28.872Z,51.00
2018-05-23T16:55:56.364Z,51.00
2018-05-23T16:58:24.787Z,50.80
2018-05-23T17:00:52.301Z,50.50
2018-05-23T17:03:19.741Z,50.40
2018-05-23T17:05:47.351Z,51.00
2018-05-23T17:08:14.781Z,51.10
2018-05-23T17:10:43.068Z,51.20
2018-05-23T17:13:10.520Z,51.20
2018-05-23T17:15:37.967Z,50.70
2018-05-23T17:18:05.428Z,51.10
2018-05-23T17:20:34.421Z,52.00
2018-05-23T17:23:02.656Z,52.30
2018-05-23T17:25:30.123Z,52.20
2018-05-23T17:27:58.297Z,51.90
2018-05-23T17:30:25.745Z,52.50
2018-05-23T17:32:53.206Z,53.60
2018-05-23T17:35:20.666Z,54.40
2018-05-23T17:37:48.647Z,55.10
2018-05-23T17:40:16.156Z,54.80
2018-05-23T17:42:43.667Z,56.10
2018-05-23T17:45:11.109Z,59.60
2018-05-23T17:47:38.561Z,62.00
2018-05-23T17:50:06.013Z,62.50
2018-05-23T17:52:34.324Z,61.60
2018-05-23T17:55:01.778Z,61.60
2018-05-23T17:57:29.260Z,62.70
2018-05-23T17:59:56.766Z,61.80
2018-05-23T18:02:25.035Z,61.00
2018-05-23T18:04:52.471Z,61.00
2018-05-23T18:07:19.955Z,63.60
2018-05-23T18:09:47.468Z,64.20
2018-05-23T18:12:15.003Z,64.90
2018-05-23T18:14:42.585Z,66.80
2018-05-23T18:17:10.026Z,67.30
2018-05-23T18:19:37.516Z,69.10
2018-05-23T18:22:04.997Z,69.00
2018-05-23T18:24:32.557Z,66.40
2018-05-23T18:27:00.028Z,65.90
2018-05-23T18:29:27.665Z,66.20
2018-05-23T18:31:56.056Z,66.00
2018-05-23T18:34:23.532Z,65.90
2018-05-23T18:36:50.985Z,63.90
2018-05-23T18:39:18.440Z,64.20
2018-05-23T18:41:45.985Z,65.00
2018-05-23T18:44:13.445Z,66.00
2018-05-23T18:46:40.888Z,65.70
2018-05-23T18:49:08.907Z,66.10
2018-05-23T18:51:36.639Z,65.50
2018-05-23T18:54:04.079Z,63.00
2018-05-23T18:56:32.302Z,69.30
2018-05-23T18:59:00.319Z,69.20
2018-05-23T19:01:28.545Z,71.10
2018-05-23T19:03:56.537Z,71.10
2018-05-23T19:06:23.985Z,71.40
2018-05-23T19:08:52.781Z,70.20
2018-05-23T19:11:20.258Z,72.50
2018-05-23T19:13:47.720Z,73.50
2018-05-23T19:16:16.817Z,74.90
2018-05-23T19:18:44.378Z,76.20
2018-05-23T19:21:12.583Z,78.20
2018-05-23T19:23:41.112Z,79.50
2018-05-23T19:26:09.288Z,79.40
2018-05-23T19:28:37.665Z,80.30
2018-05-23T19:31:05.380Z,80.90
2018-05-23T19:33:33.696Z,82.10
2018-05-23T19:36:01.177Z,83.60
2018-05-23T19:38:28.706Z,84.50
2018-05-23T19:40:56.249Z,85.40
2018-05-23T19:43:23.799Z,86.00
2018-05-23T19:45:51.416Z,86.40
2018-05-23T19:48:19.565Z,87.30
2018-05-23T19:50:48.390Z,88.50
2018-05-23T19:53:16.193Z,88.40
2018-05-23T19:55:43.795Z,89.20
2018-05-23T19:58:12.033Z,90.10
2018-05-23T20:00:39.513Z,90.10
2018-05-23T20:03:07.288Z,90.70
2018-05-23T20:05:35.943Z,90.80
2018-05-23T20:08:04.552Z,90.90
2018-05-23T20:10:31.855Z,91.30
2018-05-23T20:12:59.639Z,91.40
2018-05-23T20:15:27.302Z,91.80
2018-05-23T20:17:54.779Z,92.10
2018-05-23T20:20:22.511Z,92.30
2018-05-23T20:22:49.996Z,92.60
2018-05-23T20:25:17.464Z,92.90
2018-05-23T20:27:45.396Z,93.00
2018-05-23T20:30:13.609Z,93.20
2018-05-23T20:32:42.498Z,92.90
2018-05-23T20:35:11.357Z,93.20
2018-05-23T20:37:39.638Z,93.00
2018-05-23T20:40:07.856Z,93.10
2018-05-23T20:42:35.311Z,93.10
2018-05-23T20:45:02.773Z,93.20
2018-05-23T20:47:30.206Z,93.20
2018-05-23T20:49:58.767Z,93.50
2018-05-23T20:52:26.244Z,93.50
2018-05-23T20:54:54.471Z,93.70
2018-05-23T20:57:21.942Z,93.70
2018-05-23T20:59:49.405Z,94.00
2018-05-23T21:02:16.852Z,94.20
2018-05-23T21:04:44.312Z,94.20
2018-05-23T21:07:12.099Z,94.70
2018-05-23T21:09:39.558Z,94.40
2018-05-23T21:12:07.017Z,94.40
2018-05-23T21:14:34.625Z,94.50
2018-05-23T21:17:02.889Z,94.50
2018-05-23T21:19:30.814Z,94.50
2018-05-23T21:21:58.981Z,94.20
2018-05-23T21:24:26.368Z,94.20
2018-05-23T21:26:53.836Z,94.10
2018-05-23T21:29:22.069Z,94.10
2018-05-23T21:31:49.529Z,94.10
2018-05-23T21:34:16.994Z,94.20
2018-05-23T21:36:44.443Z,94.30
2018-05-23T21:39:12.045Z,94.40
2018-05-23T21:41:39.627Z,94.70
2018-05-23T21:44:07.003Z,94.90
2018-05-23T21:46:35.240Z,95.10
2018-05-23T21:49:02.708Z,95.20
2018-05-23T21:51:30.167Z,95.40
2018-05-23T21:53:57.636Z,95.40
2018-05-23T21:56:25.298Z,95.50
2018-05-23T21:58:52.769Z,95.80
2018-05-23T22:01:20.222Z,95.90
2018-05-23T22:03:47.681Z,95.90
2018-05-23T22:06:15.154Z,96.00
2018-05-23T22:08:42.781Z,96.20
2018-05-23T22:11:10.238Z,96.40
2018-05-23T22:13:37.713Z,96.50
2018-05-23T22:16:05.177Z,96.50
2018-05-23T22:18:32.624Z,96.70
2018-05-23T22:21:00.075Z,96.80
2018-05-23T22:23:27.541Z,97.00
2018-05-23T22:25:55.034Z,97.10
2018-05-23T22:28:30.399Z,97.90
2018-05-23T22:30:58.117Z,97.80
2018-05-23T22:33:25.555Z,97.80
2018-05-23T22:35:53.878Z,97.80
2018-05-23T22:38:22.361Z,97.90
2018-05-23T22:40:49.817Z,97.90
2018-05-23T22:43:17.299Z,98.20
2018-05-23T22:45:44.741Z,98.20
2018-05-23T22:48:12.186Z,98.00
2018-05-23T22:50:39.658Z,97.90
2018-05-23T22:53:07.124Z,97.90
2018-05-23T22:55:34.569Z,98.20
2018-05-23T22:58:02.026Z,98.20
2018-05-23T23:00:29.557Z,98.30
2018-05-23T23:02:57.026Z,98.40
2018-05-23T23:05:24.878Z,98.50
2018-05-23T23:07:53.090Z,98.90
2018-05-23T23:10:20.535Z,98.90
2018-05-23T23:12:47.980Z,98.90
2018-05-23T23:15:16.221Z,98.70
2018-05-23T23:17:43.684Z,98.70
2018-05-23T23:20:11.231Z,98.60
2018-05-23T23:22:38.707Z,98.50
2018-05-23T23:25:06.208Z,98.50
2018-05-23T23:27:34.415Z,98.60
2018-05-23T23:30:01.893Z,98.60
2018-05-23T23:32:29.552Z,98.60
2018-05-23T23:34:57.020Z,98.60
2018-05-23T23:37:24.481Z,98.60
2018-05-23T23:39:51.946Z,98.70
2018-05-23T23:42:19.408Z,98.70
2018-05-23T23:44:46.971Z,98.70
2018-05-23T23:47:14.464Z,98.70
2018-05-23T23:49:41.924Z,98.60
2018-05-23T23:52:09.412Z,98.50
2018-05-23T23:54:37.151Z,98.50
2018-05-23T23:57:04.574Z,98.40
2018-05-23T23:59:32.030Z,98.40
